createdAt,value
2019-03-27T00:00:21.702Z,100824.61
2019-03-27T00:02:55.116Z,100822.92
2019-03-27T00:05:28.366Z,100821.47
2019-03-27T00:08:01.596Z,100820.00
2019-03-27T00:10:34.966Z,100824.48
2019-03-27T00:13:08.380Z,100815.81
2019-03-27T00:15:41.637Z,100814.62
2019-03-27T00:18:14.960Z,100816.80
2019-03-27T00:20:48.204Z,100809.38
2019-03-27T00:23:21.465Z,100812.30
2019-03-27T00:25:54.720Z,100810.37
2019-03-27T00:28:27.987Z,100806.97
2019-03-27T00:31:01.148Z,100802.50
2019-03-27T00:33:34.401Z,100804.03
2019-03-27T00:36:07.655Z,100803.55
2019-03-27T00:38:40.912Z,100807.25
2019-03-27T00:41:14.164Z,100803.61
2019-03-27T00:43:47.502Z,100805.12
2019-03-27T00:46:20.848Z,100804.81
2019-03-27T00:48:54.105Z,100802.02
2019-03-27T00:51:27.341Z,100809.95
2019-03-27T00:54:00.609Z,100806.63
2019-03-27T00:56:33.851Z,100807.13
2019-03-27T00:59:07.111Z,100810.48
2019-03-27T01:01:40.345Z,100803.23
2019-03-27T01:04:13.616Z,100804.83
2019-03-27T01:06:46.868Z,100805.18
2019-03-27T01:09:20.143Z,100799.53
2019-03-27T01:11:53.372Z,100804.57
2019-03-27T01:14:26.632Z,100801.70
2019-03-27T01:16:59.893Z,100800.65
2019-03-27T01:19:33.170Z,100803.70
2019-03-27T01:22:06.409Z,100810.94
2019-03-27T01:24:39.767Z,100804.62
2019-03-27T01:27:13.030Z,100806.66
2019-03-27T01:29:46.300Z,100807.98
2019-03-27T01:32:19.555Z,100811.73
2019-03-27T01:34:52.839Z,100808.84
2019-03-27T01:37:26.141Z,100809.89
2019-03-27T01:39:59.414Z,100806.05
2019-03-27T01:42:32.827Z,100805.30
2019-03-27T01:45:06.681Z,100810.15
2019-03-27T01:47:39.937Z,100808.40
2019-03-27T01:50:13.207Z,100815.58
2019-03-27T01:52:46.515Z,100817.90
2019-03-27T01:55:19.783Z,100815.88
2019-03-27T01:57:53.021Z,100803.92
2019-03-27T02:00:26.289Z,100806.81
2019-03-27T02:02:59.518Z,100805.13
2019-03-27T02:05:32.866Z,100806.36
2019-03-27T02:08:06.097Z,100809.30
2019-03-27T02:10:39.362Z,100807.20
2019-03-27T02:13:12.596Z,100809.27
2019-03-27T02:15:45.878Z,100816.05
2019-03-27T02:18:19.157Z,100811.41
2019-03-27T02:20:52.418Z,100815.16
2019-03-27T02:23:25.687Z,100822.77
2019-03-27T02:25:58.919Z,100823.08
2019-03-27T02:28:32.185Z,100813.20
2019-03-27T02:31:05.413Z,100818.34
2019-03-27T02:33:38.770Z,100817.16
2019-03-27T02:36:12.001Z,100818.40
2019-03-27T02:38:45.385Z,100816.08
2019-03-27T02:41:18.636Z,100819.93
2019-03-27T02:43:51.900Z,100821.80
2019-03-27T02:46:25.714Z,100825.64
2019-03-27T02:48:59.109Z,100825.62
2019-03-27T02:51:32.453Z,100826.50
2019-03-27T02:54:05.703Z,100826.53
2019-03-27T02:56:38.960Z,100823.39
2019-03-27T02:59:12.237Z,100821.32
2019-03-27T03:01:48.024Z,100825.43
2019-03-27T03:04:20.544Z,100830.05
2019-03-27T03:06:53.814Z,100832.61
2019-03-27T03:09:27.150Z,100827.52
2019-03-27T03:12:00.436Z,100829.27
2019-03-27T03:14:33.659Z,100824.48
2019-03-27T03:17:06.960Z,100831.81
2019-03-27T03:19:40.387Z,100828.12
2019-03-27T03:22:13.657Z,100826.92
2019-03-27T03:24:46.904Z,100831.86
2019-03-27T03:27:20.207Z,100832.83
2019-03-27T03:29:53.442Z,100830.83
2019-03-27T03:32:26.705Z,100837.72
2019-03-27T03:34:59.965Z,100832.39
2019-03-27T03:37:51.493Z,100836.97
2019-03-27T03:40:24.761Z,100836.86
2019-03-27T03:42:58.189Z,100840.34
2019-03-27T03:45:31.554Z,100835.81
2019-03-27T03:48:04.739Z,100845.56
2019-03-27T03:50:43.338Z,100844.53
2019-03-27T03:53:18.244Z,100844.75
2019-03-27T03:55:51.509Z,100846.80
2019-03-27T03:58:24.782Z,100847.59
2019-03-27T04:00:58.132Z,100849.03
2019-03-27T04:03:32.530Z,100845.65
2019-03-27T04:06:06.192Z,100841.25
2019-03-27T04:08:39.473Z,100842.33
2019-03-27T04:11:12.722Z,100841.11
2019-03-27T04:13:46.002Z,100840.75
2019-03-27T04:16:19.382Z,100846.47
2019-03-27T04:18:52.647Z,100849.04
2019-03-27T04:21:27.082Z,100847.88
2019-03-27T04:24:00.567Z,100841.94
2019-03-27T04:26:33.863Z,100847.47
2019-03-27T04:29:07.166Z,100849.76
2019-03-27T04:31:40.420Z,100844.66
2019-03-27T04:34:13.692Z,100845.56
2019-03-27T04:36:46.933Z,100845.64
2019-03-27T04:39:20.286Z,100843.34
2019-03-27T04:41:53.530Z,100840.59
2019-03-27T04:44:26.794Z,100847.11
2019-03-27T04:47:00.068Z,100849.91
2019-03-27T04:49:33.381Z,100846.30
2019-03-27T04:52:06.552Z,100843.84
2019-03-27T04:54:39.825Z,100846.64
2019-03-27T04:57:14.142Z,100852.58
2019-03-27T04:59:47.414Z,100849.27
2019-03-27T05:02:20.661Z,100853.00
2019-03-27T05:04:54.112Z,100858.94
2019-03-27T05:07:27.368Z,100856.70
2019-03-27T05:10:00.646Z,100857.99
2019-03-27T05:12:33.902Z,100854.75
2019-03-27T05:15:07.512Z,100863.09
2019-03-27T05:17:46.238Z,100865.28
2019-03-27T05:20:15.732Z,100868.38
2019-03-27T05:22:48.958Z,100867.41
2019-03-27T05:25:22.256Z,100873.11
2019-03-27T05:27:55.507Z,100875.47
2019-03-27T05:30:31.641Z,100879.98
2019-03-27T05:33:04.878Z,100880.73
2019-03-27T05:35:38.129Z,100883.64
2019-03-27T05:38:11.298Z,100886.49
2019-03-27T05:40:44.574Z,100888.20
2019-03-27T05:43:17.895Z,100886.25
2019-03-27T05:45:51.218Z,100886.58
2019-03-27T05:48:24.481Z,100890.05
2019-03-27T05:50:57.715Z,100888.90
2019-03-27T05:53:30.979Z,100893.39
2019-03-27T05:56:04.217Z,100898.34
2019-03-27T05:58:37.466Z,100899.69
2019-03-27T06:01:10.718Z,100897.02
2019-03-27T06:03:43.956Z,100903.55
2019-03-27T06:06:17.196Z,100900.17
2019-03-27T06:08:50.453Z,100902.48
2019-03-27T06:11:23.686Z,100898.48
2019-03-27T06:13:56.960Z,100904.70
2019-03-27T06:16:30.181Z,100902.70
2019-03-27T06:19:03.424Z,100906.69
2019-03-27T06:21:36.605Z,100901.07
2019-03-27T06:24:09.873Z,100907.99
2019-03-27T06:26:43.130Z,100907.14
2019-03-27T06:29:16.397Z,100911.33
2019-03-27T06:31:49.628Z,100910.85
2019-03-27T06:34:22.914Z,100910.80
2019-03-27T06:36:56.164Z,100916.73
2019-03-27T06:39:30.505Z,100918.47
2019-03-27T06:42:03.738Z,100921.41
2019-03-27T06:44:37.019Z,100918.56
2019-03-27T06:47:11.306Z,100924.53
2019-03-27T06:49:44.573Z,100926.91
2019-03-27T06:52:18.905Z,100925.40
2019-03-27T06:54:52.210Z,100921.74
2019-03-27T06:57:26.427Z,100921.95
2019-03-27T06:59:59.727Z,100919.28
2019-03-27T07:02:32.958Z,100921.27
2019-03-27T07:05:06.537Z,100919.72
2019-03-27T07:07:39.770Z,100924.73
2019-03-27T07:10:13.048Z,100921.91
2019-03-27T07:12:46.282Z,100926.70
2019-03-27T07:15:19.537Z,100927.27
2019-03-27T07:17:52.774Z,100933.21
2019-03-27T07:20:26.034Z,100933.05
2019-03-27T07:22:59.280Z,100937.57
2019-03-27T07:25:32.543Z,100938.69
2019-03-27T07:28:05.781Z,100942.48
2019-03-27T07:30:39.045Z,100949.34
2019-03-27T07:33:12.281Z,100946.54
2019-03-27T07:35:45.536Z,100948.30
2019-03-27T07:38:18.782Z,100954.97
2019-03-27T07:40:52.070Z,100956.66
2019-03-27T07:43:25.302Z,100959.55
2019-03-27T07:45:58.620Z,100955.44
2019-03-27T07:48:31.888Z,100965.81
2019-03-27T07:51:05.170Z,100956.64
2019-03-27T07:53:39.478Z,100959.39
2019-03-27T07:56:12.748Z,100956.13
2019-03-27T07:58:46.002Z,100952.48
2019-03-27T08:01:19.272Z,100960.84
2019-03-27T08:03:52.523Z,100959.63
2019-03-27T08:06:25.892Z,100956.81
2019-03-27T08:08:59.076Z,100954.39
2019-03-27T08:11:32.492Z,100948.89
2019-03-27T08:14:06.858Z,100945.63
2019-03-27T08:16:40.131Z,100945.26
2019-03-27T08:19:13.427Z,100947.80
2019-03-27T08:21:46.693Z,100938.86
2019-03-27T08:24:19.952Z,100942.80
2019-03-27T08:26:53.232Z,100939.48
2019-03-27T08:29:26.478Z,100933.00
2019-03-27T08:31:59.762Z,100934.87
2019-03-27T08:34:33.011Z,100938.48
2019-03-27T08:37:06.375Z,100943.23
2019-03-27T08:39:39.621Z,100945.66
2019-03-27T08:42:12.904Z,100954.16
2019-03-27T08:44:46.179Z,100949.78
2019-03-27T08:47:19.459Z,100947.76
2019-03-27T08:49:52.715Z,100953.70
2019-03-27T08:52:25.955Z,100954.56
2019-03-27T08:54:59.241Z,100957.05
2019-03-27T08:57:32.499Z,100945.70
2019-03-27T09:00:06.384Z,100951.10
2019-03-27T09:02:39.744Z,100948.50
2019-03-27T09:05:13.019Z,100957.66
2019-03-27T09:07:46.279Z,100959.56
2019-03-27T09:10:19.510Z,100959.92
2019-03-27T09:12:52.781Z,100957.29
2019-03-27T09:15:26.012Z,100956.65
2019-03-27T09:17:59.273Z,100956.61
2019-03-27T09:20:32.525Z,100953.16
2019-03-27T09:23:05.778Z,100947.14
2019-03-27T09:25:39.126Z,100949.50
2019-03-27T09:28:12.370Z,100946.50
2019-03-27T09:30:45.602Z,100936.31
2019-03-27T09:33:18.876Z,100938.27
2019-03-27T09:35:52.169Z,100939.84
2019-03-27T09:38:25.444Z,100938.48
2019-03-27T09:40:58.728Z,100938.39
2019-03-27T09:43:31.995Z,100926.07
2019-03-27T09:46:05.257Z,100930.86
2019-03-27T09:48:38.577Z,100929.50
2019-03-27T09:51:11.806Z,100923.73
2019-03-27T09:53:45.058Z,100919.56
2019-03-27T09:56:19.539Z,100927.14
2019-03-27T09:58:54.124Z,100922.73
2019-03-27T10:01:27.356Z,100919.88
2019-03-27T10:04:00.607Z,100916.81
2019-03-27T10:06:33.855Z,100918.78
2019-03-27T10:09:08.646Z,100914.29
2019-03-27T10:11:41.887Z,100914.28
2019-03-27T10:14:15.165Z,100915.64
2019-03-27T10:16:48.398Z,100913.81
2019-03-27T10:19:21.651Z,100910.69
2019-03-27T10:21:54.868Z,100916.36
2019-03-27T10:24:28.128Z,100913.61
2019-03-27T10:27:01.298Z,100919.09
2019-03-27T10:29:34.554Z,100918.61
2019-03-27T10:32:07.779Z,100922.05
2019-03-27T10:34:41.040Z,100928.66
2019-03-27T10:37:14.329Z,100927.79
2019-03-27T10:39:47.570Z,100932.53
2019-03-27T10:42:20.815Z,100934.33
2019-03-27T10:44:54.087Z,100935.42
2019-03-27T10:47:28.420Z,100939.07
2019-03-27T10:50:01.671Z,100937.19
2019-03-27T10:52:34.904Z,100931.95
2019-03-27T10:55:08.174Z,100930.02
2019-03-27T10:57:41.340Z,100930.80
2019-03-27T11:00:14.589Z,100938.23
2019-03-27T11:02:47.900Z,100934.83
2019-03-27T11:05:21.178Z,100934.50
2019-03-27T11:07:54.485Z,100928.55
2019-03-27T11:10:27.744Z,100924.40
2019-03-27T11:13:00.984Z,100928.37
2019-03-27T11:15:35.108Z,100930.69
2019-03-27T11:18:09.288Z,100931.98
2019-03-27T11:20:42.562Z,100931.98
2019-03-27T11:23:15.857Z,100924.45
2019-03-27T11:25:49.192Z,100930.62
2019-03-27T11:28:23.984Z,100926.13
2019-03-27T11:30:57.230Z,100922.34
2019-03-27T11:33:32.022Z,100928.97
2019-03-27T11:36:05.340Z,100921.59
2019-03-27T11:38:38.579Z,100921.08
2019-03-27T11:41:12.414Z,100922.58
2019-03-27T11:43:54.831Z,100924.14
2019-03-27T11:46:20.745Z,100921.23
2019-03-27T11:48:53.975Z,100929.42
2019-03-27T11:51:27.318Z,100924.00
2019-03-27T11:54:00.539Z,100929.55
2019-03-27T11:56:33.781Z,100931.20
2019-03-27T11:59:07.023Z,100927.78
2019-03-27T12:01:43.590Z,100925.63
2019-03-27T12:04:15.182Z,100917.88
2019-03-27T12:06:48.430Z,100914.87
2019-03-27T12:09:21.667Z,100920.08
2019-03-27T12:11:54.901Z,100925.13
2019-03-27T12:14:28.224Z,100921.17
2019-03-27T12:17:01.491Z,100922.69
2019-03-27T12:19:37.746Z,100923.49
2019-03-27T12:22:09.650Z,100916.87
2019-03-27T12:24:42.930Z,100919.55
2019-03-27T12:27:16.227Z,100913.36
2019-03-27T12:29:49.467Z,100909.85
2019-03-27T12:32:25.068Z,100909.97
2019-03-27T12:34:57.705Z,100914.13
2019-03-27T12:37:30.893Z,100909.17
2019-03-27T12:40:11.430Z,100912.61
2019-03-27T12:42:39.102Z,100908.98
2019-03-27T12:45:12.328Z,100914.72
2019-03-27T12:47:45.606Z,100907.99
2019-03-27T12:50:18.832Z,100912.45
2019-03-27T12:52:52.081Z,100908.36
2019-03-27T12:55:25.239Z,100913.44
2019-03-27T12:57:58.486Z,100911.20
2019-03-27T13:00:32.743Z,100908.42
2019-03-27T13:03:06.013Z,100899.38
2019-03-27T13:05:39.234Z,100902.03
2019-03-27T13:08:12.481Z,100904.52
2019-03-27T13:10:46.692Z,100903.48
2019-03-27T13:13:19.943Z,100903.50
2019-03-27T13:15:53.158Z,100900.13
2019-03-27T13:18:26.407Z,100890.34
2019-03-27T13:20:59.627Z,100895.86
2019-03-27T13:23:32.871Z,100898.53
2019-03-27T13:26:06.097Z,100903.15
2019-03-27T13:28:48.676Z,100893.53
2019-03-27T13:31:14.285Z,100899.48
2019-03-27T13:33:50.207Z,100891.20
2019-03-27T13:36:22.444Z,100896.50
2019-03-27T13:38:55.774Z,100894.51
2019-03-27T13:41:28.927Z,100887.55
2019-03-27T13:44:02.214Z,100886.16
2019-03-27T13:46:35.495Z,100881.16
2019-03-27T13:49:08.879Z,100878.03
2019-03-27T13:51:42.418Z,100875.47
2019-03-27T13:54:15.868Z,100872.83
2019-03-27T13:56:49.121Z,100876.12
2019-03-27T13:59:22.389Z,100875.09
2019-03-27T14:01:56.682Z,100872.59
2019-03-27T14:04:29.931Z,100866.91
2019-03-27T14:07:03.149Z,100869.31
2019-03-27T14:09:36.406Z,100873.06
2019-03-27T14:12:09.638Z,100872.91
2019-03-27T14:14:50.064Z,100875.52
2019-03-27T14:17:17.802Z,100873.50
2019-03-27T14:19:51.064Z,100878.17
2019-03-27T14:22:25.479Z,100871.84
2019-03-27T14:24:58.712Z,100874.09
2019-03-27T14:27:31.947Z,100873.44
2019-03-27T14:30:05.815Z,100870.23
2019-03-27T14:32:39.111Z,100871.39
2019-03-27T14:35:12.352Z,100868.66
2019-03-27T14:37:45.607Z,100867.03
2019-03-27T14:40:18.849Z,100866.83
2019-03-27T14:42:52.120Z,100861.52
2019-03-27T14:45:25.399Z,100863.97
2019-03-27T14:47:58.733Z,100866.12
2019-03-27T14:50:31.974Z,100863.37
2019-03-27T14:53:06.274Z,100862.86
2019-03-27T14:55:39.525Z,100866.70
2019-03-27T14:58:12.684Z,100870.86
2019-03-27T15:00:45.932Z,100865.16
2019-03-27T15:03:19.162Z,100865.41
2019-03-27T15:05:52.418Z,100864.73
2019-03-27T15:08:25.655Z,100873.42
2019-03-27T15:10:58.910Z,100872.05
2019-03-27T15:13:32.166Z,100866.36
2019-03-27T15:16:05.494Z,100864.55
2019-03-27T15:18:38.728Z,100859.89
2019-03-27T15:21:12.072Z,100862.48
2019-03-27T15:23:45.305Z,100862.70
2019-03-27T15:26:18.567Z,100866.42
2019-03-27T15:28:51.802Z,100869.64
2019-03-27T15:31:25.082Z,100877.23
2019-03-27T15:33:58.311Z,100871.48
2019-03-27T15:36:31.532Z,100874.22
2019-03-27T15:39:06.503Z,100876.05
2019-03-27T15:41:39.822Z,100872.13
2019-03-27T15:44:16.108Z,100870.86
2019-03-27T15:46:49.442Z,100875.09
2019-03-27T15:49:22.703Z,100878.16
2019-03-27T15:51:55.941Z,100880.66
2019-03-27T15:54:29.202Z,100880.73
2019-03-27T15:57:02.454Z,100880.77
2019-03-27T15:59:35.682Z,100883.23
2019-03-27T16:02:08.995Z,100882.37
2019-03-27T16:04:42.238Z,100886.61
2019-03-27T16:07:16.565Z,100886.02
2019-03-27T16:09:49.798Z,100885.63
2019-03-27T16:12:23.057Z,100889.21
2019-03-27T16:14:56.297Z,100890.84
2019-03-27T16:17:29.555Z,100893.53
2019-03-27T16:20:02.793Z,100895.88
2019-03-27T16:22:49.491Z,100891.09
2019-03-27T16:25:11.024Z,100890.92
2019-03-27T16:27:44.558Z,100885.81
2019-03-27T16:30:17.862Z,100887.91
2019-03-27T16:32:52.190Z,100888.55
2019-03-27T16:35:25.405Z,100885.19
2019-03-27T16:37:58.656Z,100885.16
2019-03-27T16:40:45.712Z,100887.09
2019-03-27T16:43:21.555Z,100890.56
2019-03-27T16:45:54.799Z,100889.59
2019-03-27T16:48:28.409Z,100890.31
2019-03-27T16:51:01.645Z,100890.87
2019-03-27T16:53:35.935Z,100888.72
2019-03-27T16:56:09.297Z,100890.09
2019-03-27T16:58:42.527Z,100890.91
2019-03-27T17:01:15.841Z,100892.70
2019-03-27T17:03:49.085Z,100892.53
2019-03-27T17:06:22.314Z,100890.70
2019-03-27T17:08:55.580Z,100895.09
2019-03-27T17:11:28.790Z,100896.72
2019-03-27T17:14:02.119Z,100901.63
2019-03-27T17:16:35.401Z,100901.44
2019-03-27T17:19:08.608Z,100903.41
2019-03-27T17:21:41.884Z,100903.48
2019-03-27T17:24:15.104Z,100903.38
2019-03-27T17:26:48.375Z,100903.17
2019-03-27T17:29:21.639Z,100908.55
2019-03-27T17:31:54.915Z,100906.22
2019-03-27T17:34:28.142Z,100913.83
2019-03-27T17:37:01.321Z,100917.70
2019-03-27T17:39:34.558Z,100923.03
2019-03-27T17:42:07.832Z,100926.58
2019-03-27T17:44:41.080Z,100928.83
2019-03-27T17:47:14.383Z,100926.15
2019-03-27T17:49:47.622Z,100932.95
2019-03-27T17:52:20.882Z,100942.44
2019-03-27T17:54:54.126Z,100942.77
2019-03-27T17:57:27.387Z,100944.77
2019-03-27T18:00:00.754Z,100949.18
2019-03-27T18:02:34.176Z,100950.91
2019-03-27T18:05:07.589Z,100947.56
2019-03-27T18:07:40.833Z,100943.87
2019-03-27T18:10:14.105Z,100949.29
2019-03-27T18:12:47.370Z,100953.55
2019-03-27T18:15:20.667Z,100954.91
2019-03-27T18:17:53.962Z,100958.80
2019-03-27T18:20:27.245Z,100955.42
2019-03-27T18:23:00.537Z,100956.34
2019-03-27T18:25:33.771Z,100960.50
2019-03-27T18:28:08.107Z,100961.77
2019-03-27T18:30:41.374Z,100963.78
2019-03-27T18:33:14.642Z,100964.31
2019-03-27T18:35:47.936Z,100970.95
2019-03-27T18:38:21.390Z,100970.92
2019-03-27T18:40:54.641Z,100974.91
2019-03-27T18:43:27.919Z,100976.95
2019-03-27T18:46:01.142Z,100983.23
2019-03-27T18:48:34.589Z,100986.13
2019-03-27T18:51:07.884Z,100992.14
2019-03-27T18:53:41.072Z,100994.08
2019-03-27T18:56:14.308Z,101001.06
2019-03-27T18:58:47.583Z,101003.67
2019-03-27T19:01:20.822Z,101004.44
2019-03-27T19:03:54.181Z,101006.61
2019-03-27T19:06:27.400Z,101006.67
2019-03-27T19:09:00.696Z,101011.59
2019-03-27T19:11:35.532Z,101012.95
2019-03-27T19:14:08.822Z,101014.86
2019-03-27T19:16:42.061Z,101019.58
2019-03-27T19:19:15.313Z,101021.99
2019-03-27T19:21:48.547Z,101028.36
2019-03-27T19:24:21.817Z,101030.96
2019-03-27T19:26:55.062Z,101023.58
2019-03-27T19:29:28.325Z,101025.81
2019-03-27T19:32:01.661Z,101028.62
2019-03-27T19:34:34.956Z,101033.99
2019-03-27T19:37:08.192Z,101036.84
2019-03-27T19:39:41.522Z,101036.85
2019-03-27T19:42:15.021Z,101039.42
2019-03-27T19:44:48.375Z,101039.27
2019-03-27T19:47:21.827Z,101042.12
2019-03-27T19:49:55.084Z,101039.75
2019-03-27T19:52:28.324Z,101044.38
2019-03-27T19:55:01.650Z,101047.00
2019-03-27T19:57:35.200Z,101050.20
2019-03-27T20:00:10.733Z,101048.64
2019-03-27T20:02:44.323Z,101045.91
2019-03-27T20:05:17.608Z,101043.69
2019-03-27T20:07:50.860Z,101044.73
2019-03-27T20:10:24.119Z,101051.95
2019-03-27T20:12:57.362Z,101050.93
2019-03-27T20:15:30.622Z,101050.06
2019-03-27T20:18:03.873Z,101051.28
2019-03-27T20:20:37.133Z,101051.26
2019-03-27T20:23:15.143Z,101050.36
2019-03-27T20:25:45.583Z,101047.88
2019-03-27T20:28:18.821Z,101044.94
2019-03-27T20:30:52.089Z,101047.22
2019-03-27T20:33:25.369Z,101049.72
2019-03-27T20:35:58.690Z,101053.44
2019-03-27T20:38:31.970Z,101051.16
2019-03-27T20:41:05.230Z,101052.64
2019-03-27T20:43:38.602Z,101055.94
2019-03-27T20:46:24.328Z,101054.90
2019-03-27T20:48:46.842Z,101055.52
2019-03-27T20:51:20.123Z,101057.50
2019-03-27T20:53:53.641Z,101058.81
2019-03-27T20:56:26.995Z,101055.86
2019-03-27T20:59:01.489Z,101053.81
2019-03-27T21:01:35.109Z,101057.69
2019-03-27T21:04:09.416Z,101066.16
2019-03-27T21:06:42.683Z,101066.83
2019-03-27T21:09:15.936Z,101067.23
2019-03-27T21:11:49.236Z,101068.55
2019-03-27T21:14:22.419Z,101070.53
2019-03-27T21:16:55.658Z,101073.08
2019-03-27T21:19:28.935Z,101077.85
2019-03-27T21:22:02.227Z,101080.63
2019-03-27T21:24:35.501Z,101071.81
2019-03-27T21:27:08.749Z,101072.97
2019-03-27T21:29:42.024Z,101075.03
2019-03-27T21:32:15.259Z,101075.08
2019-03-27T21:34:48.530Z,101070.39
2019-03-27T21:37:21.807Z,101069.17
2019-03-27T21:39:55.085Z,101070.28
2019-03-27T21:42:28.348Z,101069.51
2019-03-27T21:45:01.619Z,101068.44
2019-03-27T21:47:35.655Z,101070.30
2019-03-27T21:50:09.012Z,101069.33
2019-03-27T21:52:42.295Z,101075.53
2019-03-27T21:55:22.330Z,101067.33
2019-03-27T21:57:50.521Z,101078.16
2019-03-27T22:00:38.947Z,101075.82
2019-03-27T22:03:12.222Z,101079.42
2019-03-27T22:05:45.467Z,101082.73
2019-03-27T22:08:18.740Z,101083.55
2019-03-27T22:10:51.993Z,101084.00
2019-03-27T22:13:25.381Z,101086.55
2019-03-27T22:15:58.659Z,101085.37
2019-03-27T22:18:31.982Z,101095.89
2019-03-27T22:21:05.276Z,101096.97
2019-03-27T22:23:38.509Z,101092.66
2019-03-27T22:26:11.777Z,101092.84
2019-03-27T22:28:45.008Z,101097.48
2019-03-27T22:31:18.261Z,101096.80
2019-03-27T22:33:51.506Z,101096.41
2019-03-27T22:36:24.764Z,101092.89
2019-03-27T22:38:57.992Z,101094.59
2019-03-27T22:41:31.183Z,101100.68
2019-03-27T22:44:04.411Z,101095.32
2019-03-27T22:46:37.672Z,101101.00
2019-03-27T22:49:10.922Z,101095.72
2019-03-27T22:51:44.171Z,101094.86
2019-03-27T22:54:17.434Z,101094.91
2019-03-27T22:56:50.672Z,101096.91
2019-03-27T22:59:23.930Z,101096.12
2019-03-27T23:01:57.184Z,101096.00
2019-03-27T23:04:30.424Z,101094.26
2019-03-27T23:07:03.686Z,101094.97
2019-03-27T23:09:36.958Z,101096.23
2019-03-27T23:12:10.267Z,101092.20
2019-03-27T23:14:43.531Z,101098.90
2019-03-27T23:17:16.778Z,101096.97
2019-03-27T23:19:51.322Z,101097.71
2019-03-27T23:22:24.836Z,101099.02
2019-03-27T23:24:58.080Z,101099.62
2019-03-27T23:27:31.341Z,101106.03
2019-03-27T23:30:05.487Z,101104.98
2019-03-27T23:32:39.121Z,101102.50
2019-03-27T23:35:12.549Z,101101.41
2019-03-27T23:37:45.973Z,101097.64
2019-03-27T23:40:19.202Z,101094.19
2019-03-27T23:42:53.530Z,101093.64
2019-03-27T23:45:26.758Z,101091.50
2019-03-27T23:48:00.055Z,101092.40
2019-03-27T23:50:33.282Z,101094.84
2019-03-27T23:53:06.542Z,101096.67
2019-03-27T23:55:39.798Z,101096.52
2019-03-27T23:58:13.068Z,101099.09
